Menu Close Menu
Station Historical Data
Daily Summary for June 16, 2017 Units:  Metric    English   Both
« Previous Day
Next Day »
Daily Weekly Monthly Yearly Custom
  High: Low: Average:
Temperature: 29.3 °C 19 °C 22.9 °C
Dew Point: 20.5 °C 17.3 °C 18.9 °C
Humidity: 91% 57% 79%
Wind Speed: 1.6km/h 0km/h 0km/h
Wind Gust: 8km/h - -
Wind- - WSW
Pressure: 1014.1 hPa 1010 hPa -
Precipitation: 0 mm    
Historical Graphs
 
 
Tabular Data for June 16, 2017
Time Temperature Dew Point Pressure Wind Wind Speed Wind Gust Humidity Rainfall Rate (Hourly) solar Conditions
00:00 19.9 °C 18.1 °C 1013.1 hPa Calm     89% 0 mm WeatherDisplay:10.37 W/m2 CLR
00:10 19.8 °C 17.9 °C 1013.1 hPa Calm     89% 0 mm WeatherDisplay:10.37 W/m2 CLR
00:20 19.8 °C 18.1 °C 1012.8 hPa Calm     90% 0 mm WeatherDisplay:10.37 W/m2 CLR
00:30 19.7 °C 18.1 °C 1012.8 hPa Calm     90% 0 mm WeatherDisplay:10.37 W/m2 CLR
00:40 19.7 °C 18 °C 1012.8 hPa Calm     90% 0 mm WeatherDisplay:10.37 W/m2 CLR
00:50 19.6 °C 17.9 °C 1012.8 hPa Calm     90% 0 mm WeatherDisplay:10.37 W/m2 CLR
01:00 19.6 °C 17.9 °C 1012.4 hPa Calm     90% 0 mm WeatherDisplay:10.37 W/m2 CLR
01:10 19.5 °C 17.8 °C 1012.8 hPa Calm     90% 0 mm WeatherDisplay:10.37 W/m2 CLR
01:20 19.5 °C 17.8 °C 1012.8 hPa Calm     90% 0 mm WeatherDisplay:10.37 W/m2 CLR
01:30 19.5 °C 18 °C 1012.4 hPa Calm     91% 0 mm WeatherDisplay:10.37 W/m2 CLR
01:40 19.5 °C 17.8 °C 1012.4 hPa Calm     90% 0 mm WeatherDisplay:10.37 W/m2 CLR
01:50 19.5 °C 17.8 °C 1012.8 hPa Calm     90% 0 mm WeatherDisplay:10.37 W/m2 CLR
02:00 19.4 °C 17.8 °C 1012.4 hPa Calm     90% 0 mm WeatherDisplay:10.37 W/m2 CLR
02:10 19.4 °C 17.8 °C 1012.4 hPa Calm     90% 0 mm WeatherDisplay:10.37 W/m2 CLR
02:20 19.4 °C 17.8 °C 1012.4 hPa Calm     90% 0 mm WeatherDisplay:10.37 W/m2 CLR
02:30 19.4 °C 17.8 °C 1012.4 hPa Calm     90% 0 mm WeatherDisplay:10.37 W/m2 CLR
02:40 19.5 °C 17.8 °C 1012.4 hPa Calm     90% 0 mm WeatherDisplay:10.37 W/m2 CLR
02:50 19.4 °C 17.8 °C 1012.4 hPa Calm     90% 0 mm WeatherDisplay:10.37 W/m2 CLR
03:00 19.4 °C 17.8 °C 1012.4 hPa Calm     90% 0 mm WeatherDisplay:10.37 W/m2 CLR
03:10 19.5 °C 17.8 °C 1012.4 hPa Calm     90% 0 mm WeatherDisplay:10.37 W/m2 CLR
03:20 19.4 °C 17.8 °C 1012.4 hPa Calm     90% 0 mm WeatherDisplay:10.37 W/m2 CLR
03:30 19 °C 17.3 °C 1012.8 hPa Calm     90% 0 mm WeatherDisplay:10.37 W/m2 CLR
03:40 19 °C 17.3 °C 1012.4 hPa Calm     90% 0 mm WeatherDisplay:10.37 W/m2 CLR
03:50 19 °C 17.3 °C 1012.4 hPa Calm     90% 0 mm WeatherDisplay:10.37 W/m2 CLR
04:00 19 °C 17.3 °C 1012.4 hPa Calm     90% 0 mm WeatherDisplay:10.37 W/m2 CLR
04:20 19 °C 17.3 °C 1012.4 hPa Calm     90% 0 mm WeatherDisplay:10.37 W/m2 CLR
04:30 19 °C 17.3 °C 1012.4 hPa Calm     90% 0 mm WeatherDisplay:10.37 W/m2 CLR
04:40 19 °C 17.3 °C 1012.8 hPa Calm     90% 0 mm WeatherDisplay:10.37 W/m2 CLR
04:50 19 °C 17.3 °C 1012.8 hPa Calm     90% 0 mm WeatherDisplay:10.37 W/m2 CLR
05:00 19 °C 17.3 °C 1012.8 hPa Calm     90% 0 mm WeatherDisplay:10.37 W/m2 CLR
05:10 19 °C 17.3 °C 1012.8 hPa Calm     90% 0 mm WeatherDisplay:10.37 W/m2 CLR
05:20 19 °C 17.3 °C 1013.1 hPa Calm     90% 0 mm WeatherDisplay:10.37 W/m2 CLR
05:30 19 °C 17.3 °C 1013.1 hPa Calm     90% 0 mm WeatherDisplay:10.37 W/m2 CLR
05:40 19 °C 17.3 °C 1013.1 hPa Calm     90% 0 mm WeatherDisplay:10.37 W/m2 CLR
05:50 19 °C 17.3 °C 1013.1 hPa Calm     90% 0 mm WeatherDisplay:10.37 W/m2 CLR
06:00 19 °C 17.3 °C 1013.1 hPa Calm     90% 0 mm WeatherDisplay:10.37 W/m2 CLR
06:10 19 °C 17.3 °C 1013.1 hPa Calm     90% 0 mm WeatherDisplay:10.37 W/m2 CLR
06:20 19 °C 17.3 °C 1013.1 hPa Calm     90% 0 mm WeatherDisplay:10.37 W/m2 CLR
06:30 19 °C 17.3 °C 1013.1 hPa Calm     90% 0 mm WeatherDisplay:10.37 W/m2 CLR
06:40 19 °C 17.3 °C 1013.1 hPa Calm     90% 0 mm WeatherDisplay:10.37 W/m2 CLR
06:50 19 °C 17.3 °C 1013.4 hPa Calm     90% 0 mm WeatherDisplay:10.37 W/m2 CLR
07:00 19 °C 17.3 °C 1013.8 hPa Calm     90% 0 mm WeatherDisplay:10.37 W/m2 CLR
07:10 19 °C 17.3 °C 1013.8 hPa Calm     90% 0 mm WeatherDisplay:10.37 W/m2 CLR
07:20 19 °C 17.3 °C 1013.8 hPa Calm     90% 0 mm WeatherDisplay:10.37 W/m2 CLR
07:30 19 °C 17.3 °C 1013.8 hPa Calm     90% 0 mm WeatherDisplay:10.37 W/m2 CLR
07:50 19 °C 17.3 °C 1013.8 hPa Calm     90% 0 mm WeatherDisplay:10.37 W/m2 CLR
08:00 19 °C 17.3 °C 1014.1 hPa Calm     90% 0 mm WeatherDisplay:10.37 W/m2 CLR
08:10 19 °C 17.3 °C 1014.1 hPa Calm     90% 0 mm WeatherDisplay:10.37 W/m2 CLR
08:20 19 °C 17.3 °C 1013.8 hPa Calm     90% 0 mm WeatherDisplay:10.37 W/m2 CLR
08:30 19 °C 17.3 °C 1013.8 hPa Calm     90% 0 mm WeatherDisplay:10.37 W/m2 CLR
08:40 19 °C 17.3 °C 1013.8 hPa Calm     90% 0 mm WeatherDisplay:10.37 W/m2 CLR
08:50 19 °C 17.3 °C 1013.8 hPa Calm     90% 0 mm WeatherDisplay:10.37 W/m2 CLR
09:00 19 °C 17.3 °C 1013.4 hPa Calm     90% 0 mm WeatherDisplay:10.37 W/m2 CLR
09:10 20.1 °C 18.2 °C 1013.8 hPa Calm   1.6 km/h 89% 0 mm WeatherDisplay:10.37 W/m2 CLR
09:20 20.3 °C 18.1 °C 1013.4 hPa Calm   1.6 km/h 87% 0 mm WeatherDisplay:10.37 W/m2 CLR
09:30 20.6 °C 18.3 °C 1013.1 hPa Calm     87% 0 mm WeatherDisplay:10.37 W/m2 CLR
09:40 20.8 °C 18.3 °C 1013.1 hPa Calm   1.6 km/h 86% 0 mm WeatherDisplay:10.37 W/m2 CLR
09:50 21.2 °C 18.5 °C 1013.1 hPa Calm   1.6 km/h 85% 0 mm WeatherDisplay:10.37 W/m2 CLR
10:00 21.4 °C 18.8 °C 1013.1 hPa Calm   3.2 km/h 85% 0 mm WeatherDisplay:10.37 W/m2 CLR
10:10 21.6 °C 18.8 °C 1013.4 hPa Calm   3.2 km/h 84% 0 mm WeatherDisplay:10.37 W/m2 CLR
10:20 21.6 °C 18.6 °C 1013.1 hPa WSW 1.6 km/h 8 km/h 83% 0 mm WeatherDisplay:10.37 W/m2 CLR
10:30 21.7 °C 18.9 °C 1013.4 hPa Calm   3.2 km/h 84% 0 mm WeatherDisplay:10.37 W/m2 CLR
10:40 22 °C 19.2 °C 1013.4 hPa Calm   3.2 km/h 84% 0 mm WeatherDisplay:10.37 W/m2 CLR
10:50 22.4 °C 19.3 °C 1013.4 hPa Calm     83% 0 mm WeatherDisplay:10.37 W/m2 CLR
11:00 22.7 °C 19.3 °C 1013.4 hPa Calm     81% 0 mm WeatherDisplay:10.37 W/m2 CLR
11:10 23.1 °C 19.3 °C 1013.4 hPa Calm   3.2 km/h 79% 0 mm WeatherDisplay:10.37 W/m2 CLR
11:20 23.4 °C 19.6 °C 1013.4 hPa Calm   1.6 km/h 79% 0 mm WeatherDisplay:10.37 W/m2 CLR
11:30 23.7 °C 19.4 °C 1013.4 hPa Calm   1.6 km/h 77% 0 mm WeatherDisplay:10.37 W/m2 CLR
11:40 23.7 °C 19.2 °C 1013.4 hPa Calm   1.6 km/h 76% 0 mm WeatherDisplay:10.37 W/m2 CLR
11:50 23.8 °C 19.5 °C 1013.4 hPa Calm   3.2 km/h 77% 0 mm WeatherDisplay:10.37 W/m2 CLR
12:00 23.8 °C 19.8 °C 1013.4 hPa Calm     78% 0 mm WeatherDisplay:10.37 W/m2 CLR
12:10 23.9 °C 19.7 °C 1013.4 hPa Calm   4.8 km/h 77% 0 mm WeatherDisplay:10.37 W/m2 CLR
12:20 24.2 °C 19.4 °C 1013.4 hPa Calm   1.6 km/h 75% 0 mm WeatherDisplay:10.37 W/m2 CLR
12:30 24.6 °C 19.6 °C 1013.4 hPa Calm   1.6 km/h 74% 0 mm WeatherDisplay:10.37 W/m2 CLR
12:40 24.8 °C 19.7 °C 1013.4 hPa Calm   1.6 km/h 73% 0 mm WeatherDisplay:10.37 W/m2 CLR
12:50 24.7 °C 19.3 °C 1013.1 hPa WSW 1.6 km/h 4.8 km/h 72% 0 mm WeatherDisplay:10.37 W/m2 CLR
13:00 24.9 °C 19.8 °C 1013.1 hPa Calm   1.6 km/h 73% 0 mm WeatherDisplay:10.37 W/m2 CLR
13:10 25.5 °C 19.8 °C 1012.8 hPa Calm   3.2 km/h 71% 0 mm WeatherDisplay:10.37 W/m2 CLR
13:20 25.8 °C 19.9 °C 1012.8 hPa Calm   1.6 km/h 70% 0 mm WeatherDisplay:10.37 W/m2 CLR
13:30 25.9 °C 20.1 °C 1012.4 hPa Calm   3.2 km/h 70% 0 mm WeatherDisplay:10.37 W/m2 CLR
13:40 26.2 °C 20.5 °C 1012.4 hPa Calm   3.2 km/h 71% 0 mm WeatherDisplay:10.37 W/m2 CLR
13:50 26.5 °C 20.4 °C 1012.4 hPa Calm   1.6 km/h 69% 0 mm WeatherDisplay:10.37 W/m2 CLR
14:00 26.4 °C 20.3 °C 1012.4 hPa Calm   3.2 km/h 69% 0 mm WeatherDisplay:10.37 W/m2 CLR
14:10 26.5 °C 20.3 °C 1012.1 hPa Calm   1.6 km/h 69% 0 mm WeatherDisplay:10.37 W/m2 CLR
14:20 26.7 °C 19.8 °C 1012.1 hPa Calm   1.6 km/h 66% 0 mm WeatherDisplay:10.37 W/m2 CLR
14:30 26.9 °C 20.3 °C 1012.1 hPa Calm   1.6 km/h 67% 0 mm WeatherDisplay:10.37 W/m2 CLR
14:40 26.9 °C 20.3 °C 1012.1 hPa Calm   1.6 km/h 67% 0 mm WeatherDisplay:10.37 W/m2 CLR
14:50 27.1 °C 20.4 °C 1011.7 hPa Calm   3.2 km/h 67% 0 mm WeatherDisplay:10.37 W/m2 CLR
15:00 27.2 °C 19.6 °C 1011.7 hPa Calm   8 km/h 63% 0 mm WeatherDisplay:10.37 W/m2 CLR
15:10 27.3 °C 20.2 °C 1011.7 hPa Calm   1.6 km/h 65% 0 mm WeatherDisplay:10.37 W/m2 CLR
15:20 27.4 °C 19.4 °C 1011.7 hPa Calm   3.2 km/h 62% 0 mm WeatherDisplay:10.37 W/m2 CLR
15:30 27.3 °C 20.2 °C 1011.4 hPa Calm   3.2 km/h 65% 0 mm WeatherDisplay:10.37 W/m2 CLR
15:40 27.5 °C 19.8 °C 1011.4 hPa Calm   3.2 km/h 63% 0 mm WeatherDisplay:10.37 W/m2 CLR
15:50 27.6 °C 20.1 °C 1011.4 hPa Calm   3.2 km/h 64% 0 mm WeatherDisplay:10.37 W/m2 CLR
16:00 27.6 °C 19.7 °C 1011.4 hPa West 1.6 km/h 4.8 km/h 62% 0 mm WeatherDisplay:10.37 W/m2 CLR
16:10 27.7 °C 19.7 °C 1011.4 hPa Calm   3.2 km/h 62% 0 mm WeatherDisplay:10.37 W/m2 CLR
16:20 27.8 °C 19.8 °C 1011.1 hPa West 1.6 km/h 3.2 km/h 62% 0 mm WeatherDisplay:10.37 W/m2 CLR
16:30 28.1 °C 19.3 °C 1011.1 hPa SW 1.6 km/h 4.8 km/h 59% 0 mm WeatherDisplay:10.37 W/m2 CLR
16:40 28 °C 20.1 °C 1011.1 hPa Calm   3.2 km/h 62% 0 mm WeatherDisplay:10.37 W/m2 CLR
16:50 27.9 °C 20 °C 1010.7 hPa Calm   3.2 km/h 62% 0 mm WeatherDisplay:10.37 W/m2 CLR
17:00 28.6 °C 19.8 °C 1010.7 hPa SW 1.6 km/h 8 km/h 59% 0 mm WeatherDisplay:10.37 W/m2 CLR
17:10 29.1 °C 20.2 °C 1010.4 hPa Calm   1.6 km/h 59% 0 mm WeatherDisplay:10.37 W/m2 CLR
17:20 29.3 °C 19.9 °C 1010.4 hPa Calm   4.8 km/h 57% 0 mm WeatherDisplay:10.37 W/m2 CLR
17:30 29.1 °C 20 °C 1010.4 hPa Calm   1.6 km/h 58% 0 mm WeatherDisplay:10.37 W/m2 CLR
17:40 28.7 °C 19.6 °C 1010.4 hPa Calm   3.2 km/h 58% 0 mm WeatherDisplay:10.37 W/m2 CLR
17:50 28.4 °C 19.9 °C 1010.4 hPa Calm   1.6 km/h 60% 0 mm WeatherDisplay:10.37 W/m2 CLR
18:00 28.2 °C 19.7 °C 1010.4 hPa Calm   1.6 km/h 60% 0 mm WeatherDisplay:10.37 W/m2 CLR
18:10 27.9 °C 19.9 °C 1010.4 hPa Calm   1.6 km/h 62% 0 mm WeatherDisplay:10.37 W/m2 CLR
18:20 27.6 °C 19.7 °C 1010 hPa WSW 1.6 km/h 4.8 km/h 62% 0 mm WeatherDisplay:10.37 W/m2 CLR
18:30 27.6 °C 19.9 °C 1010 hPa Calm   1.6 km/h 63% 0 mm WeatherDisplay:10.37 W/m2 CLR
18:40 27.4 °C 20.1 °C 1010 hPa Calm   1.6 km/h 64% 0 mm WeatherDisplay:10.37 W/m2 CLR
18:50 27.2 °C 20.1 °C 1010 hPa Calm   1.6 km/h 65% 0 mm WeatherDisplay:10.37 W/m2 CLR
19:00 27.1 °C 19.7 °C 1010 hPa Calm     64% 0 mm WeatherDisplay:10.37 W/m2 CLR
19:10 27 °C 20.1 °C 1010 hPa Calm     66% 0 mm WeatherDisplay:10.37 W/m2 CLR
19:20 26.9 °C 19.6 °C 1010.4 hPa Calm   1.6 km/h 64% 0 mm WeatherDisplay:10.37 W/m2 CLR
19:30 26.8 °C 19.9 °C 1010.4 hPa Calm     66% 0 mm WeatherDisplay:10.37 W/m2 CLR
19:40 26.4 °C 20.1 °C 1010.4 hPa Calm     68% 0 mm WeatherDisplay:10.37 W/m2 CLR
19:50 26.1 °C 20 °C 1010.4 hPa Calm     69% 0 mm WeatherDisplay:10.37 W/m2 CLR
20:00 25.8 °C 20.2 °C 1010.4 hPa Calm     71% 0 mm WeatherDisplay:10.37 W/m2 CLR
20:10 25.6 °C 20.2 °C 1010.4 hPa Calm     72% 0 mm WeatherDisplay:10.37 W/m2 CLR
20:20 25.4 °C 20 °C 1010.4 hPa Calm     72% 0 mm WeatherDisplay:10.37 W/m2 CLR
20:30 25.2 °C 20.1 °C 1010.4 hPa Calm     73% 0 mm WeatherDisplay:10.37 W/m2 CLR
20:40 25.1 °C 20.1 °C 1010.4 hPa Calm     74% 0 mm WeatherDisplay:10.37 W/m2 CLR
20:50 24.9 °C 19.9 °C 1010.7 hPa Calm     74% 0 mm WeatherDisplay:10.37 W/m2 CLR
21:00 24.7 °C 20.2 °C 1010.7 hPa Calm     76% 0 mm WeatherDisplay:10.37 W/m2 CLR
21:10 24.5 °C 20.2 °C 1010.7 hPa Calm     77% 0 mm WeatherDisplay:10.37 W/m2 CLR
21:20 24.4 °C 20.1 °C 1010.7 hPa Calm     77% 0 mm WeatherDisplay:10.37 W/m2 CLR
21:30 24.2 °C 20.1 °C 1010.7 hPa Calm     78% 0 mm WeatherDisplay:10.37 W/m2 CLR
21:40 23.9 °C 20.1 °C 1011.1 hPa Calm     79% 0 mm WeatherDisplay:10.37 W/m2 CLR
21:50 23.8 °C 20.1 °C 1011.1 hPa Calm     80% 0 mm WeatherDisplay:10.37 W/m2 CLR
22:00 23.5 °C 19.9 °C 1011.1 hPa Calm     80% 0 mm WeatherDisplay:10.37 W/m2 CLR
22:10 23.3 °C 19.9 °C 1011.1 hPa Calm     81% 0 mm WeatherDisplay:10.37 W/m2 CLR
22:20 23.2 °C 19.8 °C 1011.1 hPa Calm     81% 0 mm WeatherDisplay:10.37 W/m2 CLR
22:30 23.1 °C 19.8 °C 1011.1 hPa Calm     82% 0 mm WeatherDisplay:10.37 W/m2 CLR
22:40 22.9 °C 19.7 °C 1011.1 hPa Calm     82% 0 mm WeatherDisplay:10.37 W/m2 CLR
22:50 22.7 °C 19.7 °C 1011.4 hPa Calm     83% 0 mm WeatherDisplay:10.37 W/m2 CLR
23:00 22.6 °C 19.7 °C 1011.4 hPa Calm     84% 0 mm WeatherDisplay:10.37 W/m2 CLR
23:10 22.4 °C 19.8 °C 1011.4 hPa Calm     85% 0 mm WeatherDisplay:10.37 W/m2 CLR
23:20 22.3 °C 19.9 °C 1011.4 hPa Calm     86% 0 mm WeatherDisplay:10.37 W/m2 CLR
23:30 22.2 °C 19.8 °C 1011.4 hPa Calm     86% 0 mm WeatherDisplay:10.37 W/m2 CLR
23:40 22.1 °C 19.8 °C 1011.4 hPa Calm     87% 0 mm WeatherDisplay:10.37 W/m2 CLR
23:50 21.9 °C 19.7 °C 1011.4 hPa Calm     87% 0 mm WeatherDisplay:10.37 W/m2 CLR
Piedmont Bend
Compliments of Weather Underground - 4 mb